<?xml version="1.0" encoding="UTF-8" standalone="no" ?>
<gpx xmlns="http://www.topografix.com/GPX/1/1" xmlns:xsi="http://www.w3.org/2001/XMLSchema-instance" xsi:schemaLocation="http://www.topografix.com/GPX/1/1 http://www.topografix.com/GPX/1/1/gpx.xsd" version="1.1" creator="VisuGPX - https://www.visugpx.com">
  <metadata>
    <name>13605808-Grand Charnier</name>
  </metadata>
  <trk>
    <name><![CDATA[13605808-Grand Charnier]]></name>
    <trkseg>
      <trkpt lat="45.39373" lon="6.12826">
        <ele>1645</ele>
        <time>2021-09-19T12:09:12Z</time>
      </trkpt>
      <trkpt lat="45.39362" lon="6.12831">
        <ele>1645</ele>
        <time>2021-09-19T12:09:27Z</time>
      </trkpt>
      <trkpt lat="45.39357" lon="6.12837">
        <ele>1645</ele>
        <time>2021-09-19T12:09:36Z</time>
      </trkpt>
      <trkpt lat="45.39346" lon="6.12844">
        <ele>1645</ele>
        <time>2021-09-19T12:09:52Z</time>
      </trkpt>
      <trkpt lat="45.39334" lon="6.12848">
        <ele>1644</ele>
        <time>2021-09-19T12:10:09Z</time>
      </trkpt>
      <trkpt lat="45.39328" lon="6.12846">
        <ele>1644</ele>
        <time>2021-09-19T12:10:17Z</time>
      </trkpt>
      <trkpt lat="45.39325" lon="6.12835">
        <ele>1644</ele>
        <time>2021-09-19T12:10:28Z</time>
      </trkpt>
      <trkpt lat="45.39317" lon="6.12824">
        <ele>1644</ele>
        <time>2021-09-19T12:10:43Z</time>
      </trkpt>
      <trkpt lat="45.39309" lon="6.12856">
        <ele>1647</ele>
        <time>2021-09-19T12:11:15Z</time>
      </trkpt>
      <trkpt lat="45.39304" lon="6.12884">
        <ele>1649</ele>
        <time>2021-09-19T12:11:42Z</time>
      </trkpt>
      <trkpt lat="45.39294" lon="6.12916">
        <ele>1651</ele>
        <time>2021-09-19T12:12:15Z</time>
      </trkpt>
      <trkpt lat="45.39243" lon="6.1303">
        <ele>1662</ele>
        <time>2021-09-19T12:14:21Z</time>
      </trkpt>
      <trkpt lat="45.39232" lon="6.13076">
        <ele>1668</ele>
        <time>2021-09-19T12:15:07Z</time>
      </trkpt>
      <trkpt lat="45.39197" lon="6.13148">
        <ele>1677</ele>
        <time>2021-09-19T12:16:29Z</time>
      </trkpt>
      <trkpt lat="45.39175" lon="6.1321">
        <ele>1684</ele>
        <time>2021-09-19T12:17:34Z</time>
      </trkpt>
      <trkpt lat="45.39122" lon="6.13313">
        <ele>1697</ele>
        <time>2021-09-19T12:19:34Z</time>
      </trkpt>
      <trkpt lat="45.39128" lon="6.13367">
        <ele>1704</ele>
        <time>2021-09-19T12:20:25Z</time>
      </trkpt>
      <trkpt lat="45.39125" lon="6.13391">
        <ele>1707</ele>
        <time>2021-09-19T12:20:48Z</time>
      </trkpt>
      <trkpt lat="45.39113" lon="6.13424">
        <ele>1711</ele>
        <time>2021-09-19T12:21:22Z</time>
      </trkpt>
      <trkpt lat="45.39115" lon="6.1344">
        <ele>1714</ele>
        <time>2021-09-19T12:21:38Z</time>
      </trkpt>
      <trkpt lat="45.39099" lon="6.135">
        <ele>1724</ele>
        <time>2021-09-19T12:22:38Z</time>
      </trkpt>
      <trkpt lat="45.39075" lon="6.13544">
        <ele>1727</ele>
        <time>2021-09-19T12:23:30Z</time>
      </trkpt>
      <trkpt lat="45.39056" lon="6.13566">
        <ele>1728</ele>
        <time>2021-09-19T12:24:03Z</time>
      </trkpt>
      <trkpt lat="45.39047" lon="6.13566">
        <ele>1727</ele>
        <time>2021-09-19T12:24:15Z</time>
      </trkpt>
      <trkpt lat="45.38991" lon="6.13532">
        <ele>1721</ele>
        <time>2021-09-19T12:25:36Z</time>
      </trkpt>
      <trkpt lat="45.38899" lon="6.13519">
        <ele>1739</ele>
        <time>2021-09-19T12:27:39Z</time>
      </trkpt>
      <trkpt lat="45.38872" lon="6.13544">
        <ele>1754</ele>
        <time>2021-09-19T12:28:22Z</time>
      </trkpt>
      <trkpt lat="45.38867" lon="6.13571">
        <ele>1757</ele>
        <time>2021-09-19T12:28:48Z</time>
      </trkpt>
      <trkpt lat="45.38866" lon="6.13593">
        <ele>1760</ele>
        <time>2021-09-19T12:29:09Z</time>
      </trkpt>
      <trkpt lat="45.38879" lon="6.13628">
        <ele>1762</ele>
        <time>2021-09-19T12:29:46Z</time>
      </trkpt>
      <trkpt lat="45.38887" lon="6.13641">
        <ele>1760</ele>
        <time>2021-09-19T12:30:02Z</time>
      </trkpt>
      <trkpt lat="45.3889" lon="6.13653">
        <ele>1761</ele>
        <time>2021-09-19T12:30:14Z</time>
      </trkpt>
      <trkpt lat="45.38888" lon="6.13665">
        <ele>1765</ele>
        <time>2021-09-19T12:30:26Z</time>
      </trkpt>
      <trkpt lat="45.3888" lon="6.13665">
        <ele>1770</ele>
        <time>2021-09-19T12:30:37Z</time>
      </trkpt>
      <trkpt lat="45.38772" lon="6.13539">
        <ele>1798</ele>
        <time>2021-09-19T12:33:43Z</time>
      </trkpt>
      <trkpt lat="45.38762" lon="6.13531">
        <ele>1801</ele>
        <time>2021-09-19T12:33:58Z</time>
      </trkpt>
      <trkpt lat="45.38751" lon="6.13531">
        <ele>1805</ele>
        <time>2021-09-19T12:34:13Z</time>
      </trkpt>
      <trkpt lat="45.38736" lon="6.13552">
        <ele>1805</ele>
        <time>2021-09-19T12:34:41Z</time>
      </trkpt>
      <trkpt lat="45.38693" lon="6.13588">
        <ele>1799</ele>
        <time>2021-09-19T12:35:48Z</time>
      </trkpt>
      <trkpt lat="45.38684" lon="6.13646">
        <ele>1813</ele>
        <time>2021-09-19T12:36:43Z</time>
      </trkpt>
      <trkpt lat="45.38679" lon="6.13666">
        <ele>1817</ele>
        <time>2021-09-19T12:37:03Z</time>
      </trkpt>
      <trkpt lat="45.38669" lon="6.13684">
        <ele>1819</ele>
        <time>2021-09-19T12:37:25Z</time>
      </trkpt>
      <trkpt lat="45.38657" lon="6.13694">
        <ele>1814</ele>
        <time>2021-09-19T12:37:43Z</time>
      </trkpt>
      <trkpt lat="45.38638" lon="6.13755">
        <ele>1817</ele>
        <time>2021-09-19T12:38:46Z</time>
      </trkpt>
      <trkpt lat="45.38623" lon="6.13775">
        <ele>1814</ele>
        <time>2021-09-19T12:39:13Z</time>
      </trkpt>
      <trkpt lat="45.38608" lon="6.13805">
        <ele>1815</ele>
        <time>2021-09-19T12:39:48Z</time>
      </trkpt>
      <trkpt lat="45.38598" lon="6.1382">
        <ele>1814</ele>
        <time>2021-09-19T12:40:07Z</time>
      </trkpt>
      <trkpt lat="45.38569" lon="6.13847">
        <ele>1804</ele>
        <time>2021-09-19T12:40:53Z</time>
      </trkpt>
      <trkpt lat="45.3853" lon="6.1393">
        <ele>1807</ele>
        <time>2021-09-19T12:42:27Z</time>
      </trkpt>
      <trkpt lat="45.38521" lon="6.13967">
        <ele>1816</ele>
        <time>2021-09-19T12:43:04Z</time>
      </trkpt>
      <trkpt lat="45.3852" lon="6.13983">
        <ele>1822</ele>
        <time>2021-09-19T12:43:19Z</time>
      </trkpt>
      <trkpt lat="45.38508" lon="6.13983">
        <ele>1814</ele>
        <time>2021-09-19T12:43:35Z</time>
      </trkpt>
      <trkpt lat="45.38492" lon="6.14004">
        <ele>1814</ele>
        <time>2021-09-19T12:44:04Z</time>
      </trkpt>
      <trkpt lat="45.38492" lon="6.14027">
        <ele>1822</ele>
        <time>2021-09-19T12:44:25Z</time>
      </trkpt>
      <trkpt lat="45.38485" lon="6.14037">
        <ele>1823</ele>
        <time>2021-09-19T12:44:38Z</time>
      </trkpt>
      <trkpt lat="45.38467" lon="6.14042">
        <ele>1815</ele>
        <time>2021-09-19T12:45:03Z</time>
      </trkpt>
      <trkpt lat="45.38456" lon="6.14065">
        <ele>1817</ele>
        <time>2021-09-19T12:45:29Z</time>
      </trkpt>
      <trkpt lat="45.38418" lon="6.14093">
        <ele>1805</ele>
        <time>2021-09-19T12:46:26Z</time>
      </trkpt>
      <trkpt lat="45.38412" lon="6.14103">
        <ele>1806</ele>
        <time>2021-09-19T12:46:38Z</time>
      </trkpt>
      <trkpt lat="45.38408" lon="6.14134">
        <ele>1815</ele>
        <time>2021-09-19T12:47:08Z</time>
      </trkpt>
      <trkpt lat="45.38398" lon="6.14154">
        <ele>1815</ele>
        <time>2021-09-19T12:47:31Z</time>
      </trkpt>
      <trkpt lat="45.38392" lon="6.14202">
        <ele>1818</ele>
        <time>2021-09-19T12:48:17Z</time>
      </trkpt>
      <trkpt lat="45.38389" lon="6.14208">
        <ele>1816</ele>
        <time>2021-09-19T12:48:24Z</time>
      </trkpt>
      <trkpt lat="45.38391" lon="6.14213">
        <ele>1818</ele>
        <time>2021-09-19T12:48:29Z</time>
      </trkpt>
      <trkpt lat="45.3839" lon="6.1422">
        <ele>1818</ele>
        <time>2021-09-19T12:48:36Z</time>
      </trkpt>
      <trkpt lat="45.38397" lon="6.14237">
        <ele>1825</ele>
        <time>2021-09-19T12:48:54Z</time>
      </trkpt>
      <trkpt lat="45.38393" lon="6.14246">
        <ele>1822</ele>
        <time>2021-09-19T12:49:04Z</time>
      </trkpt>
      <trkpt lat="45.38392" lon="6.14255">
        <ele>1823</ele>
        <time>2021-09-19T12:49:13Z</time>
      </trkpt>
      <trkpt lat="45.38387" lon="6.14262">
        <ele>1820</ele>
        <time>2021-09-19T12:49:22Z</time>
      </trkpt>
      <trkpt lat="45.38383" lon="6.14275">
        <ele>1820</ele>
        <time>2021-09-19T12:49:35Z</time>
      </trkpt>
      <trkpt lat="45.38383" lon="6.14292">
        <ele>1823</ele>
        <time>2021-09-19T12:49:51Z</time>
      </trkpt>
      <trkpt lat="45.3838" lon="6.143">
        <ele>1823</ele>
        <time>2021-09-19T12:50:00Z</time>
      </trkpt>
      <trkpt lat="45.38383" lon="6.14341">
        <ele>1836</ele>
        <time>2021-09-19T12:50:38Z</time>
      </trkpt>
      <trkpt lat="45.38375" lon="6.14347">
        <ele>1835</ele>
        <time>2021-09-19T12:50:50Z</time>
      </trkpt>
      <trkpt lat="45.38374" lon="6.1435">
        <ele>1837</ele>
        <time>2021-09-19T12:50:54Z</time>
      </trkpt>
      <trkpt lat="45.38368" lon="6.14352">
        <ele>1835</ele>
        <time>2021-09-19T12:51:02Z</time>
      </trkpt>
      <trkpt lat="45.38366" lon="6.14362">
        <ele>1840</ele>
        <time>2021-09-19T12:51:12Z</time>
      </trkpt>
      <trkpt lat="45.3836" lon="6.1437">
        <ele>1842</ele>
        <time>2021-09-19T12:51:23Z</time>
      </trkpt>
      <trkpt lat="45.3835" lon="6.14372">
        <ele>1840</ele>
        <time>2021-09-19T12:51:36Z</time>
      </trkpt>
      <trkpt lat="45.38335" lon="6.14372">
        <ele>1835</ele>
        <time>2021-09-19T12:51:56Z</time>
      </trkpt>
      <trkpt lat="45.38325" lon="6.14368">
        <ele>1831</ele>
        <time>2021-09-19T12:52:10Z</time>
      </trkpt>
      <trkpt lat="45.3831" lon="6.14378">
        <ele>1835</ele>
        <time>2021-09-19T12:52:32Z</time>
      </trkpt>
      <trkpt lat="45.38301" lon="6.14377">
        <ele>1833</ele>
        <time>2021-09-19T12:52:44Z</time>
      </trkpt>
      <trkpt lat="45.38282" lon="6.1436">
        <ele>1821</ele>
        <time>2021-09-19T12:53:14Z</time>
      </trkpt>
      <trkpt lat="45.38267" lon="6.14361">
        <ele>1820</ele>
        <time>2021-09-19T12:53:34Z</time>
      </trkpt>
      <trkpt lat="45.38249" lon="6.14357">
        <ele>1816</ele>
        <time>2021-09-19T12:53:58Z</time>
      </trkpt>
      <trkpt lat="45.38239" lon="6.1436">
        <ele>1815</ele>
        <time>2021-09-19T12:54:12Z</time>
      </trkpt>
      <trkpt lat="45.38221" lon="6.14356">
        <ele>1810</ele>
        <time>2021-09-19T12:54:36Z</time>
      </trkpt>
      <trkpt lat="45.38209" lon="6.14357">
        <ele>1808</ele>
        <time>2021-09-19T12:54:52Z</time>
      </trkpt>
      <trkpt lat="45.38202" lon="6.14354">
        <ele>1805</ele>
        <time>2021-09-19T12:55:02Z</time>
      </trkpt>
      <trkpt lat="45.38184" lon="6.14359">
        <ele>1805</ele>
        <time>2021-09-19T12:55:27Z</time>
      </trkpt>
      <trkpt lat="45.38176" lon="6.14369">
        <ele>1809</ele>
        <time>2021-09-19T12:55:41Z</time>
      </trkpt>
      <trkpt lat="45.38161" lon="6.14377">
        <ele>1812</ele>
        <time>2021-09-19T12:56:02Z</time>
      </trkpt>
      <trkpt lat="45.38157" lon="6.14373">
        <ele>1809</ele>
        <time>2021-09-19T12:56:09Z</time>
      </trkpt>
      <trkpt lat="45.38152" lon="6.14371">
        <ele>1808</ele>
        <time>2021-09-19T12:56:16Z</time>
      </trkpt>
      <trkpt lat="45.38148" lon="6.14365">
        <ele>1804</ele>
        <time>2021-09-19T12:56:23Z</time>
      </trkpt>
      <trkpt lat="45.38126" lon="6.14352">
        <ele>1795</ele>
        <time>2021-09-19T12:56:55Z</time>
      </trkpt>
      <trkpt lat="45.38089" lon="6.14335">
        <ele>1781</ele>
        <time>2021-09-19T12:57:47Z</time>
      </trkpt>
      <trkpt lat="45.38048" lon="6.14327">
        <ele>1779</ele>
        <time>2021-09-19T12:58:42Z</time>
      </trkpt>
      <trkpt lat="45.38036" lon="6.1434">
        <ele>1787</ele>
        <time>2021-09-19T12:59:02Z</time>
      </trkpt>
      <trkpt lat="45.38022" lon="6.14348">
        <ele>1791</ele>
        <time>2021-09-19T12:59:22Z</time>
      </trkpt>
      <trkpt lat="45.38014" lon="6.14349">
        <ele>1792</ele>
        <time>2021-09-19T12:59:33Z</time>
      </trkpt>
      <trkpt lat="45.38002" lon="6.14359">
        <ele>1796</ele>
        <time>2021-09-19T12:59:52Z</time>
      </trkpt>
      <trkpt lat="45.3799" lon="6.14373">
        <ele>1796</ele>
        <time>2021-09-19T13:00:12Z</time>
      </trkpt>
      <trkpt lat="45.37983" lon="6.14386">
        <ele>1797</ele>
        <time>2021-09-19T13:00:28Z</time>
      </trkpt>
      <trkpt lat="45.37982" lon="6.14406">
        <ele>1802</ele>
        <time>2021-09-19T13:00:47Z</time>
      </trkpt>
      <trkpt lat="45.37988" lon="6.14412">
        <ele>1807</ele>
        <time>2021-09-19T13:00:56Z</time>
      </trkpt>
      <trkpt lat="45.37987" lon="6.14417">
        <ele>1808</ele>
        <time>2021-09-19T13:01:01Z</time>
      </trkpt>
      <trkpt lat="45.37989" lon="6.1442">
        <ele>1810</ele>
        <time>2021-09-19T13:01:05Z</time>
      </trkpt>
      <trkpt lat="45.37997" lon="6.14414">
        <ele>1812</ele>
        <time>2021-09-19T13:01:17Z</time>
      </trkpt>
      <trkpt lat="45.38007" lon="6.14413">
        <ele>1815</ele>
        <time>2021-09-19T13:01:31Z</time>
      </trkpt>
      <trkpt lat="45.38013" lon="6.14415">
        <ele>1817</ele>
        <time>2021-09-19T13:01:39Z</time>
      </trkpt>
      <trkpt lat="45.38019" lon="6.14423">
        <ele>1821</ele>
        <time>2021-09-19T13:01:50Z</time>
      </trkpt>
      <trkpt lat="45.38016" lon="6.14428">
        <ele>1822</ele>
        <time>2021-09-19T13:01:56Z</time>
      </trkpt>
      <trkpt lat="45.38013" lon="6.1444">
        <ele>1825</ele>
        <time>2021-09-19T13:02:08Z</time>
      </trkpt>
      <trkpt lat="45.38016" lon="6.14461">
        <ele>1833</ele>
        <time>2021-09-19T13:02:28Z</time>
      </trkpt>
      <trkpt lat="45.38027" lon="6.14477">
        <ele>1843</ele>
        <time>2021-09-19T13:02:49Z</time>
      </trkpt>
      <trkpt lat="45.38031" lon="6.14488">
        <ele>1849</ele>
        <time>2021-09-19T13:03:01Z</time>
      </trkpt>
      <trkpt lat="45.38034" lon="6.14528">
        <ele>1866</ele>
        <time>2021-09-19T13:03:38Z</time>
      </trkpt>
      <trkpt lat="45.38031" lon="6.14566">
        <ele>1878</ele>
        <time>2021-09-19T13:04:14Z</time>
      </trkpt>
      <trkpt lat="45.38014" lon="6.14668">
        <ele>1891</ele>
        <time>2021-09-19T13:05:52Z</time>
      </trkpt>
      <trkpt lat="45.38013" lon="6.14682">
        <ele>1891</ele>
        <time>2021-09-19T13:06:06Z</time>
      </trkpt>
      <trkpt lat="45.38022" lon="6.147">
        <ele>1898</ele>
        <time>2021-09-19T13:06:26Z</time>
      </trkpt>
      <trkpt lat="45.38026" lon="6.14722">
        <ele>1902</ele>
        <time>2021-09-19T13:06:48Z</time>
      </trkpt>
      <trkpt lat="45.38035" lon="6.14743">
        <ele>1910</ele>
        <time>2021-09-19T13:07:11Z</time>
      </trkpt>
      <trkpt lat="45.38035" lon="6.14757">
        <ele>1911</ele>
        <time>2021-09-19T13:07:24Z</time>
      </trkpt>
      <trkpt lat="45.38038" lon="6.14768">
        <ele>1915</ele>
        <time>2021-09-19T13:07:35Z</time>
      </trkpt>
      <trkpt lat="45.38035" lon="6.14784">
        <ele>1915</ele>
        <time>2021-09-19T13:07:50Z</time>
      </trkpt>
      <trkpt lat="45.38038" lon="6.14795">
        <ele>1919</ele>
        <time>2021-09-19T13:08:01Z</time>
      </trkpt>
      <trkpt lat="45.38034" lon="6.14816">
        <ele>1918</ele>
        <time>2021-09-19T13:08:22Z</time>
      </trkpt>
      <trkpt lat="45.38026" lon="6.1484">
        <ele>1915</ele>
        <time>2021-09-19T13:08:47Z</time>
      </trkpt>
      <trkpt lat="45.38027" lon="6.14845">
        <ele>1917</ele>
        <time>2021-09-19T13:08:52Z</time>
      </trkpt>
      <trkpt lat="45.38023" lon="6.14859">
        <ele>1917</ele>
        <time>2021-09-19T13:09:06Z</time>
      </trkpt>
      <trkpt lat="45.38023" lon="6.14865">
        <ele>1919</ele>
        <time>2021-09-19T13:09:11Z</time>
      </trkpt>
      <trkpt lat="45.3802" lon="6.14883">
        <ele>1920</ele>
        <time>2021-09-19T13:09:29Z</time>
      </trkpt>
      <trkpt lat="45.38015" lon="6.14897">
        <ele>1920</ele>
        <time>2021-09-19T13:09:43Z</time>
      </trkpt>
      <trkpt lat="45.38013" lon="6.14923">
        <ele>1926</ele>
        <time>2021-09-19T13:10:08Z</time>
      </trkpt>
      <trkpt lat="45.38016" lon="6.14932">
        <ele>1931</ele>
        <time>2021-09-19T13:10:17Z</time>
      </trkpt>
      <trkpt lat="45.38014" lon="6.14943">
        <ele>1934</ele>
        <time>2021-09-19T13:10:28Z</time>
      </trkpt>
      <trkpt lat="45.3801" lon="6.14949">
        <ele>1934</ele>
        <time>2021-09-19T13:10:36Z</time>
      </trkpt>
      <trkpt lat="45.38011" lon="6.14966">
        <ele>1942</ele>
        <time>2021-09-19T13:10:52Z</time>
      </trkpt>
      <trkpt lat="45.38009" lon="6.14972">
        <ele>1943</ele>
        <time>2021-09-19T13:10:58Z</time>
      </trkpt>
      <trkpt lat="45.38005" lon="6.14973">
        <ele>1941</ele>
        <time>2021-09-19T13:11:03Z</time>
      </trkpt>
      <trkpt lat="45.38" lon="6.14976">
        <ele>1939</ele>
        <time>2021-09-19T13:11:11Z</time>
      </trkpt>
      <trkpt lat="45.37985" lon="6.14993">
        <ele>1940</ele>
        <time>2021-09-19T13:11:36Z</time>
      </trkpt>
      <trkpt lat="45.37973" lon="6.14996">
        <ele>1935</ele>
        <time>2021-09-19T13:11:52Z</time>
      </trkpt>
      <trkpt lat="45.37966" lon="6.15002">
        <ele>1934</ele>
        <time>2021-09-19T13:12:03Z</time>
      </trkpt>
      <trkpt lat="45.37956" lon="6.15007">
        <ele>1932</ele>
        <time>2021-09-19T13:12:17Z</time>
      </trkpt>
      <trkpt lat="45.37953" lon="6.15006">
        <ele>1930</ele>
        <time>2021-09-19T13:12:22Z</time>
      </trkpt>
      <trkpt lat="45.37949" lon="6.1501">
        <ele>1930</ele>
        <time>2021-09-19T13:12:28Z</time>
      </trkpt>
      <trkpt lat="45.37924" lon="6.15016">
        <ele>1920</ele>
        <time>2021-09-19T13:13:02Z</time>
      </trkpt>
      <trkpt lat="45.37917" lon="6.1502">
        <ele>1919</ele>
        <time>2021-09-19T13:13:12Z</time>
      </trkpt>
      <trkpt lat="45.37914" lon="6.15026">
        <ele>1921</ele>
        <time>2021-09-19T13:13:19Z</time>
      </trkpt>
      <trkpt lat="45.37911" lon="6.15026">
        <ele>1919</ele>
        <time>2021-09-19T13:13:23Z</time>
      </trkpt>
      <trkpt lat="45.37904" lon="6.15035">
        <ele>1921</ele>
        <time>2021-09-19T13:13:35Z</time>
      </trkpt>
      <trkpt lat="45.37901" lon="6.15035">
        <ele>1920</ele>
        <time>2021-09-19T13:13:39Z</time>
      </trkpt>
      <trkpt lat="45.37895" lon="6.15044">
        <ele>1922</ele>
        <time>2021-09-19T13:13:51Z</time>
      </trkpt>
      <trkpt lat="45.37885" lon="6.15054">
        <ele>1923</ele>
        <time>2021-09-19T13:14:07Z</time>
      </trkpt>
      <trkpt lat="45.37883" lon="6.1506">
        <ele>1925</ele>
        <time>2021-09-19T13:14:14Z</time>
      </trkpt>
      <trkpt lat="45.37876" lon="6.15068">
        <ele>1926</ele>
        <time>2021-09-19T13:14:26Z</time>
      </trkpt>
      <trkpt lat="45.37877" lon="6.1507">
        <ele>1928</ele>
        <time>2021-09-19T13:14:28Z</time>
      </trkpt>
      <trkpt lat="45.37869" lon="6.15079">
        <ele>1929</ele>
        <time>2021-09-19T13:14:42Z</time>
      </trkpt>
      <trkpt lat="45.37865" lon="6.15086">
        <ele>1930</ele>
        <time>2021-09-19T13:14:50Z</time>
      </trkpt>
      <trkpt lat="45.37862" lon="6.15093">
        <ele>1932</ele>
        <time>2021-09-19T13:14:58Z</time>
      </trkpt>
      <trkpt lat="45.37859" lon="6.15109">
        <ele>1938</ele>
        <time>2021-09-19T13:15:13Z</time>
      </trkpt>
      <trkpt lat="45.37861" lon="6.15114">
        <ele>1941</ele>
        <time>2021-09-19T13:15:19Z</time>
      </trkpt>
      <trkpt lat="45.3786" lon="6.15118">
        <ele>1942</ele>
        <time>2021-09-19T13:15:23Z</time>
      </trkpt>
      <trkpt lat="45.3785" lon="6.1514">
        <ele>1947</ele>
        <time>2021-09-19T13:15:47Z</time>
      </trkpt>
      <trkpt lat="45.37847" lon="6.15142">
        <ele>1947</ele>
        <time>2021-09-19T13:15:52Z</time>
      </trkpt>
      <trkpt lat="45.37847" lon="6.15147">
        <ele>1949</ele>
        <time>2021-09-19T13:15:56Z</time>
      </trkpt>
      <trkpt lat="45.37844" lon="6.15151">
        <ele>1949</ele>
        <time>2021-09-19T13:16:02Z</time>
      </trkpt>
      <trkpt lat="45.37838" lon="6.15152">
        <ele>1947</ele>
        <time>2021-09-19T13:16:10Z</time>
      </trkpt>
      <trkpt lat="45.37835" lon="6.15154">
        <ele>1947</ele>
        <time>2021-09-19T13:16:14Z</time>
      </trkpt>
      <trkpt lat="45.37833" lon="6.1516">
        <ele>1948</ele>
        <time>2021-09-19T13:16:20Z</time>
      </trkpt>
      <trkpt lat="45.37824" lon="6.15173">
        <ele>1949</ele>
        <time>2021-09-19T13:16:38Z</time>
      </trkpt>
      <trkpt lat="45.37819" lon="6.15178">
        <ele>1949</ele>
        <time>2021-09-19T13:16:46Z</time>
      </trkpt>
      <trkpt lat="45.37813" lon="6.15187">
        <ele>1950</ele>
        <time>2021-09-19T13:16:57Z</time>
      </trkpt>
      <trkpt lat="45.37805" lon="6.15192">
        <ele>1948</ele>
        <time>2021-09-19T13:17:09Z</time>
      </trkpt>
      <trkpt lat="45.3778" lon="6.15224">
        <ele>1952</ele>
        <time>2021-09-19T13:17:54Z</time>
      </trkpt>
      <trkpt lat="45.3777" lon="6.15232">
        <ele>1952</ele>
        <time>2021-09-19T13:18:09Z</time>
      </trkpt>
      <trkpt lat="45.37752" lon="6.15253">
        <ele>1955</ele>
        <time>2021-09-19T13:18:40Z</time>
      </trkpt>
      <trkpt lat="45.37729" lon="6.15286">
        <ele>1955</ele>
        <time>2021-09-19T13:19:24Z</time>
      </trkpt>
      <trkpt lat="45.37701" lon="6.15309">
        <ele>1953</ele>
        <time>2021-09-19T13:20:07Z</time>
      </trkpt>
      <trkpt lat="45.37685" lon="6.15325">
        <ele>1953</ele>
        <time>2021-09-19T13:20:33Z</time>
      </trkpt>
      <trkpt lat="45.3768" lon="6.15327">
        <ele>1953</ele>
        <time>2021-09-19T13:20:40Z</time>
      </trkpt>
      <trkpt lat="45.3767" lon="6.15337">
        <ele>1952</ele>
        <time>2021-09-19T13:20:56Z</time>
      </trkpt>
      <trkpt lat="45.37655" lon="6.15358">
        <ele>1951</ele>
        <time>2021-09-19T13:21:24Z</time>
      </trkpt>
      <trkpt lat="45.37644" lon="6.15371">
        <ele>1951</ele>
        <time>2021-09-19T13:21:43Z</time>
      </trkpt>
      <trkpt lat="45.37635" lon="6.15381">
        <ele>1952</ele>
        <time>2021-09-19T13:21:59Z</time>
      </trkpt>
      <trkpt lat="45.37631" lon="6.1538">
        <ele>1952</ele>
        <time>2021-09-19T13:22:04Z</time>
      </trkpt>
      <trkpt lat="45.37622" lon="6.15385">
        <ele>1953</ele>
        <time>2021-09-19T13:22:17Z</time>
      </trkpt>
      <trkpt lat="45.37618" lon="6.15384">
        <ele>1954</ele>
        <time>2021-09-19T13:22:22Z</time>
      </trkpt>
      <trkpt lat="45.3761" lon="6.15385">
        <ele>1955</ele>
        <time>2021-09-19T13:22:33Z</time>
      </trkpt>
      <trkpt lat="45.37599" lon="6.15391">
        <ele>1957</ele>
        <time>2021-09-19T13:22:49Z</time>
      </trkpt>
      <trkpt lat="45.37587" lon="6.15394">
        <ele>1959</ele>
        <time>2021-09-19T13:23:05Z</time>
      </trkpt>
      <trkpt lat="45.37584" lon="6.15397">
        <ele>1960</ele>
        <time>2021-09-19T13:23:10Z</time>
      </trkpt>
      <trkpt lat="45.37564" lon="6.15398">
        <ele>1961</ele>
        <time>2021-09-19T13:23:37Z</time>
      </trkpt>
      <trkpt lat="45.37559" lon="6.15402">
        <ele>1962</ele>
        <time>2021-09-19T13:23:44Z</time>
      </trkpt>
      <trkpt lat="45.37546" lon="6.15406">
        <ele>1964</ele>
        <time>2021-09-19T13:24:02Z</time>
      </trkpt>
      <trkpt lat="45.37542" lon="6.1541">
        <ele>1966</ele>
        <time>2021-09-19T13:24:09Z</time>
      </trkpt>
      <trkpt lat="45.37538" lon="6.15412">
        <ele>1966</ele>
        <time>2021-09-19T13:24:14Z</time>
      </trkpt>
      <trkpt lat="45.37525" lon="6.15425">
        <ele>1970</ele>
        <time>2021-09-19T13:24:35Z</time>
      </trkpt>
      <trkpt lat="45.37515" lon="6.15448">
        <ele>1976</ele>
        <time>2021-09-19T13:25:01Z</time>
      </trkpt>
      <trkpt lat="45.37504" lon="6.15468">
        <ele>1983</ele>
        <time>2021-09-19T13:25:25Z</time>
      </trkpt>
      <trkpt lat="45.37492" lon="6.15482">
        <ele>1987</ele>
        <time>2021-09-19T13:25:45Z</time>
      </trkpt>
      <trkpt lat="45.37491" lon="6.15491">
        <ele>1989</ele>
        <time>2021-09-19T13:25:54Z</time>
      </trkpt>
      <trkpt lat="45.37487" lon="6.15494">
        <ele>1989</ele>
        <time>2021-09-19T13:26:00Z</time>
      </trkpt>
      <trkpt lat="45.37472" lon="6.15515">
        <ele>1993</ele>
        <time>2021-09-19T13:26:28Z</time>
      </trkpt>
      <trkpt lat="45.37444" lon="6.15541">
        <ele>2005</ele>
        <time>2021-09-19T13:27:13Z</time>
      </trkpt>
      <trkpt lat="45.37438" lon="6.15552">
        <ele>2012</ele>
        <time>2021-09-19T13:27:26Z</time>
      </trkpt>
      <trkpt lat="45.37423" lon="6.15558">
        <ele>2019</ele>
        <time>2021-09-19T13:27:46Z</time>
      </trkpt>
      <trkpt lat="45.37414" lon="6.15579">
        <ele>2034</ele>
        <time>2021-09-19T13:28:10Z</time>
      </trkpt>
      <trkpt lat="45.37414" lon="6.1559">
        <ele>2040</ele>
        <time>2021-09-19T13:28:20Z</time>
      </trkpt>
      <trkpt lat="45.37412" lon="6.15596">
        <ele>2042</ele>
        <time>2021-09-19T13:28:26Z</time>
      </trkpt>
      <trkpt lat="45.374" lon="6.1561">
        <ele>2044</ele>
        <time>2021-09-19T13:28:47Z</time>
      </trkpt>
      <trkpt lat="45.37375" lon="6.15617">
        <ele>2038</ele>
        <time>2021-09-19T13:29:21Z</time>
      </trkpt>
      <trkpt lat="45.37373" lon="6.15621">
        <ele>2040</ele>
        <time>2021-09-19T13:29:25Z</time>
      </trkpt>
      <trkpt lat="45.37369" lon="6.15621">
        <ele>2039</ele>
        <time>2021-09-19T13:29:31Z</time>
      </trkpt>
      <trkpt lat="45.37363" lon="6.15629">
        <ele>2041</ele>
        <time>2021-09-19T13:29:42Z</time>
      </trkpt>
      <trkpt lat="45.37344" lon="6.15644">
        <ele>2045</ele>
        <time>2021-09-19T13:30:11Z</time>
      </trkpt>
      <trkpt lat="45.37341" lon="6.1565">
        <ele>2048</ele>
        <time>2021-09-19T13:30:18Z</time>
      </trkpt>
      <trkpt lat="45.37334" lon="6.15654">
        <ele>2049</ele>
        <time>2021-09-19T13:30:28Z</time>
      </trkpt>
      <trkpt lat="45.37324" lon="6.15655">
        <ele>2047</ele>
        <time>2021-09-19T13:30:41Z</time>
      </trkpt>
      <trkpt lat="45.37316" lon="6.15662">
        <ele>2050</ele>
        <time>2021-09-19T13:30:54Z</time>
      </trkpt>
      <trkpt lat="45.37307" lon="6.15664">
        <ele>2049</ele>
        <time>2021-09-19T13:31:06Z</time>
      </trkpt>
      <trkpt lat="45.373" lon="6.15675">
        <ele>2054</ele>
        <time>2021-09-19T13:31:20Z</time>
      </trkpt>
      <trkpt lat="45.37293" lon="6.15679">
        <ele>2055</ele>
        <time>2021-09-19T13:31:30Z</time>
      </trkpt>
      <trkpt lat="45.37284" lon="6.15679">
        <ele>2053</ele>
        <time>2021-09-19T13:31:42Z</time>
      </trkpt>
      <trkpt lat="45.37269" lon="6.15672">
        <ele>2046</ele>
        <time>2021-09-19T13:32:03Z</time>
      </trkpt>
      <trkpt lat="45.37249" lon="6.1567">
        <ele>2041</ele>
        <time>2021-09-19T13:32:29Z</time>
      </trkpt>
      <trkpt lat="45.37239" lon="6.15681">
        <ele>2045</ele>
        <time>2021-09-19T13:32:46Z</time>
      </trkpt>
      <trkpt lat="45.37235" lon="6.1569">
        <ele>2050</ele>
        <time>2021-09-19T13:32:56Z</time>
      </trkpt>
      <trkpt lat="45.37215" lon="6.15701">
        <ele>2052</ele>
        <time>2021-09-19T13:33:25Z</time>
      </trkpt>
      <trkpt lat="45.37203" lon="6.157">
        <ele>2049</ele>
        <time>2021-09-19T13:33:41Z</time>
      </trkpt>
      <trkpt lat="45.37198" lon="6.15696">
        <ele>2046</ele>
        <time>2021-09-19T13:33:49Z</time>
      </trkpt>
      <trkpt lat="45.37168" lon="6.15696">
        <ele>2039</ele>
        <time>2021-09-19T13:34:29Z</time>
      </trkpt>
      <trkpt lat="45.37165" lon="6.15693">
        <ele>2037</ele>
        <time>2021-09-19T13:34:34Z</time>
      </trkpt>
      <trkpt lat="45.37146" lon="6.15687">
        <ele>2029</ele>
        <time>2021-09-19T13:35:00Z</time>
      </trkpt>
      <trkpt lat="45.37141" lon="6.15683">
        <ele>2026</ele>
        <time>2021-09-19T13:35:07Z</time>
      </trkpt>
      <trkpt lat="45.37131" lon="6.15682">
        <ele>2024</ele>
        <time>2021-09-19T13:35:21Z</time>
      </trkpt>
      <trkpt lat="45.3712" lon="6.15686">
        <ele>2023</ele>
        <time>2021-09-19T13:35:36Z</time>
      </trkpt>
      <trkpt lat="45.37114" lon="6.15682">
        <ele>2020</ele>
        <time>2021-09-19T13:35:45Z</time>
      </trkpt>
      <trkpt lat="45.37113" lon="6.15678">
        <ele>2018</ele>
        <time>2021-09-19T13:35:49Z</time>
      </trkpt>
      <trkpt lat="45.37107" lon="6.15675">
        <ele>2016</ele>
        <time>2021-09-19T13:35:57Z</time>
      </trkpt>
      <trkpt lat="45.37103" lon="6.15676">
        <ele>2016</ele>
        <time>2021-09-19T13:36:02Z</time>
      </trkpt>
      <trkpt lat="45.37096" lon="6.15684">
        <ele>2018</ele>
        <time>2021-09-19T13:36:14Z</time>
      </trkpt>
      <trkpt lat="45.37087" lon="6.15688">
        <ele>2017</ele>
        <time>2021-09-19T13:36:27Z</time>
      </trkpt>
      <trkpt lat="45.37083" lon="6.15686">
        <ele>2015</ele>
        <time>2021-09-19T13:36:33Z</time>
      </trkpt>
      <trkpt lat="45.37072" lon="6.15688">
        <ele>2011</ele>
        <time>2021-09-19T13:36:47Z</time>
      </trkpt>
      <trkpt lat="45.37068" lon="6.15691">
        <ele>2010</ele>
        <time>2021-09-19T13:36:54Z</time>
      </trkpt>
      <trkpt lat="45.37068" lon="6.15726">
        <ele>2019</ele>
        <time>2021-09-19T13:37:26Z</time>
      </trkpt>
      <trkpt lat="45.37073" lon="6.15744">
        <ele>2027</ele>
        <time>2021-09-19T13:37:44Z</time>
      </trkpt>
      <trkpt lat="45.3707" lon="6.15761">
        <ele>2028</ele>
        <time>2021-09-19T13:38:01Z</time>
      </trkpt>
      <trkpt lat="45.37071" lon="6.15775">
        <ele>2030</ele>
        <time>2021-09-19T13:38:14Z</time>
      </trkpt>
      <trkpt lat="45.37069" lon="6.15787">
        <ele>2030</ele>
        <time>2021-09-19T13:38:26Z</time>
      </trkpt>
      <trkpt lat="45.37068" lon="6.15825">
        <ele>2034</ele>
        <time>2021-09-19T13:39:01Z</time>
      </trkpt>
      <trkpt lat="45.37066" lon="6.15833">
        <ele>2033</ele>
        <time>2021-09-19T13:39:09Z</time>
      </trkpt>
      <trkpt lat="45.37068" lon="6.15854">
        <ele>2039</ele>
        <time>2021-09-19T13:39:29Z</time>
      </trkpt>
      <trkpt lat="45.37066" lon="6.1587">
        <ele>2040</ele>
        <time>2021-09-19T13:39:44Z</time>
      </trkpt>
      <trkpt lat="45.37062" lon="6.15892">
        <ele>2043</ele>
        <time>2021-09-19T13:40:06Z</time>
      </trkpt>
      <trkpt lat="45.37062" lon="6.159">
        <ele>2044</ele>
        <time>2021-09-19T13:40:13Z</time>
      </trkpt>
      <trkpt lat="45.37049" lon="6.15937">
        <ele>2051</ele>
        <time>2021-09-19T13:40:52Z</time>
      </trkpt>
      <trkpt lat="45.37038" lon="6.15959">
        <ele>2057</ele>
        <time>2021-09-19T13:41:17Z</time>
      </trkpt>
      <trkpt lat="45.37005" lon="6.15989">
        <ele>2058</ele>
        <time>2021-09-19T13:42:10Z</time>
      </trkpt>
      <trkpt lat="45.36985" lon="6.15993">
        <ele>2060</ele>
        <time>2021-09-19T13:42:36Z</time>
      </trkpt>
      <trkpt lat="45.36956" lon="6.15972">
        <ele>2053</ele>
        <time>2021-09-19T13:43:20Z</time>
      </trkpt>
      <trkpt lat="45.36938" lon="6.15967">
        <ele>2053</ele>
        <time>2021-09-19T13:43:44Z</time>
      </trkpt>
      <trkpt lat="45.36934" lon="6.15964">
        <ele>2053</ele>
        <time>2021-09-19T13:43:50Z</time>
      </trkpt>
      <trkpt lat="45.36892" lon="6.15942">
        <ele>2056</ele>
        <time>2021-09-19T13:44:50Z</time>
      </trkpt>
      <trkpt lat="45.36861" lon="6.15946">
        <ele>2069</ele>
        <time>2021-09-19T13:45:32Z</time>
      </trkpt>
      <trkpt lat="45.36853" lon="6.15946">
        <ele>2072</ele>
        <time>2021-09-19T13:45:42Z</time>
      </trkpt>
      <trkpt lat="45.3685" lon="6.15944">
        <ele>2072</ele>
        <time>2021-09-19T13:45:47Z</time>
      </trkpt>
      <trkpt lat="45.36849" lon="6.15946">
        <ele>2073</ele>
        <time>2021-09-19T13:45:49Z</time>
      </trkpt>
      <trkpt lat="45.36851" lon="6.15947">
        <ele>2073</ele>
        <time>2021-09-19T13:45:52Z</time>
      </trkpt>
      <trkpt lat="45.36851" lon="6.15949">
        <ele>2073</ele>
        <time>2021-09-19T13:45:54Z</time>
      </trkpt>
      <trkpt lat="45.36839" lon="6.15949">
        <ele>2078</ele>
        <time>2021-09-19T13:46:10Z</time>
      </trkpt>
      <trkpt lat="45.36827" lon="6.15942">
        <ele>2076</ele>
        <time>2021-09-19T13:46:27Z</time>
      </trkpt>
      <trkpt lat="45.36814" lon="6.1593">
        <ele>2069</ele>
        <time>2021-09-19T13:46:48Z</time>
      </trkpt>
      <trkpt lat="45.36818" lon="6.15991">
        <ele>2091</ele>
        <time>2021-09-19T13:47:45Z</time>
      </trkpt>
      <trkpt lat="45.36823" lon="6.16023">
        <ele>2109</ele>
        <time>2021-09-19T13:48:16Z</time>
      </trkpt>
      <trkpt lat="45.36825" lon="6.16055">
        <ele>2129</ele>
        <time>2021-09-19T13:48:46Z</time>
      </trkpt>
      <trkpt lat="45.36831" lon="6.16084">
        <ele>2149</ele>
        <time>2021-09-19T13:49:14Z</time>
      </trkpt>
      <trkpt lat="45.36831" lon="6.16117">
        <ele>2165</ele>
        <time>2021-09-19T13:49:45Z</time>
      </trkpt>
      <trkpt lat="45.36838" lon="6.16183">
        <ele>2194</ele>
        <time>2021-09-19T13:50:48Z</time>
      </trkpt>
      <trkpt lat="45.36843" lon="6.16196">
        <ele>2198</ele>
        <time>2021-09-19T13:51:02Z</time>
      </trkpt>
      <trkpt lat="45.36838" lon="6.16222">
        <ele>2212</ele>
        <time>2021-09-19T13:51:27Z</time>
      </trkpt>
      <trkpt lat="45.3684" lon="6.16234">
        <ele>2217</ele>
        <time>2021-09-19T13:51:39Z</time>
      </trkpt>
      <trkpt lat="45.36831" lon="6.16272">
        <ele>2237</ele>
        <time>2021-09-19T13:52:16Z</time>
      </trkpt>
      <trkpt lat="45.36817" lon="6.16269">
        <ele>2236</ele>
        <time>2021-09-19T13:52:35Z</time>
      </trkpt>
      <trkpt lat="45.36808" lon="6.16282">
        <ele>2243</ele>
        <time>2021-09-19T13:52:52Z</time>
      </trkpt>
      <trkpt lat="45.36805" lon="6.16296">
        <ele>2249</ele>
        <time>2021-09-19T13:53:06Z</time>
      </trkpt>
      <trkpt lat="45.36809" lon="6.16312">
        <ele>2257</ele>
        <time>2021-09-19T13:53:22Z</time>
      </trkpt>
      <trkpt lat="45.36803" lon="6.16314">
        <ele>2258</ele>
        <time>2021-09-19T13:53:30Z</time>
      </trkpt>
      <trkpt lat="45.36796" lon="6.16327">
        <ele>2264</ele>
        <time>2021-09-19T13:53:45Z</time>
      </trkpt>
      <trkpt lat="45.36753" lon="6.16366">
        <ele>2285</ele>
        <time>2021-09-19T13:54:54Z</time>
      </trkpt>
      <trkpt lat="45.36729" lon="6.1641">
        <ele>2319</ele>
        <time>2021-09-19T13:55:46Z</time>
      </trkpt>
      <trkpt lat="45.3666" lon="6.16494">
        <ele>2400</ele>
        <time>2021-09-19T13:57:47Z</time>
      </trkpt>
      <trkpt lat="45.36613" lon="6.16519">
        <ele>2435</ele>
        <time>2021-09-19T13:58:54Z</time>
      </trkpt>
      <trkpt lat="45.36545" lon="6.16528">
        <ele>2461</ele>
        <time>2021-09-19T14:00:25Z</time>
      </trkpt>
      <trkpt lat="45.36511" lon="6.16562">
        <ele>2480</ele>
        <time>2021-09-19T14:01:20Z</time>
      </trkpt>
      <trkpt lat="45.3649" lon="6.1661">
        <ele>2496</ele>
        <time>2021-09-19T14:02:13Z</time>
      </trkpt>
      <trkpt lat="45.36446" lon="6.1665">
        <ele>2508</ele>
        <time>2021-09-19T14:03:23Z</time>
      </trkpt>
      <trkpt lat="45.36427" lon="6.16664">
        <ele>2516</ele>
        <time>2021-09-19T14:03:52Z</time>
      </trkpt>
      <trkpt lat="45.36446" lon="6.1665">
        <ele>2508</ele>
        <time>2021-09-19T14:04:20Z</time>
      </trkpt>
      <trkpt lat="45.3649" lon="6.1661">
        <ele>2496</ele>
        <time>2021-09-19T14:05:30Z</time>
      </trkpt>
      <trkpt lat="45.36511" lon="6.16562">
        <ele>2480</ele>
        <time>2021-09-19T14:06:23Z</time>
      </trkpt>
      <trkpt lat="45.36545" lon="6.16528">
        <ele>2461</ele>
        <time>2021-09-19T14:07:18Z</time>
      </trkpt>
      <trkpt lat="45.36613" lon="6.16519">
        <ele>2435</ele>
        <time>2021-09-19T14:08:50Z</time>
      </trkpt>
      <trkpt lat="45.3666" lon="6.16494">
        <ele>2400</ele>
        <time>2021-09-19T14:09:56Z</time>
      </trkpt>
      <trkpt lat="45.36729" lon="6.1641">
        <ele>2319</ele>
        <time>2021-09-19T14:11:58Z</time>
      </trkpt>
      <trkpt lat="45.36753" lon="6.16366">
        <ele>2285</ele>
        <time>2021-09-19T14:12:50Z</time>
      </trkpt>
      <trkpt lat="45.36796" lon="6.16327">
        <ele>2264</ele>
        <time>2021-09-19T14:13:58Z</time>
      </trkpt>
      <trkpt lat="45.36803" lon="6.16314">
        <ele>2258</ele>
        <time>2021-09-19T14:14:13Z</time>
      </trkpt>
      <trkpt lat="45.36809" lon="6.16312">
        <ele>2257</ele>
        <time>2021-09-19T14:14:21Z</time>
      </trkpt>
      <trkpt lat="45.36805" lon="6.16296">
        <ele>2249</ele>
        <time>2021-09-19T14:14:37Z</time>
      </trkpt>
      <trkpt lat="45.36808" lon="6.16282">
        <ele>2243</ele>
        <time>2021-09-19T14:14:51Z</time>
      </trkpt>
      <trkpt lat="45.36817" lon="6.16269">
        <ele>2236</ele>
        <time>2021-09-19T14:15:08Z</time>
      </trkpt>
      <trkpt lat="45.36831" lon="6.16272">
        <ele>2237</ele>
        <time>2021-09-19T14:15:27Z</time>
      </trkpt>
      <trkpt lat="45.3684" lon="6.16234">
        <ele>2217</ele>
        <time>2021-09-19T14:16:05Z</time>
      </trkpt>
      <trkpt lat="45.36838" lon="6.16222">
        <ele>2212</ele>
        <time>2021-09-19T14:16:16Z</time>
      </trkpt>
      <trkpt lat="45.36843" lon="6.16196">
        <ele>2198</ele>
        <time>2021-09-19T14:16:42Z</time>
      </trkpt>
      <trkpt lat="45.36838" lon="6.16183">
        <ele>2194</ele>
        <time>2021-09-19T14:16:55Z</time>
      </trkpt>
      <trkpt lat="45.36831" lon="6.16117">
        <ele>2165</ele>
        <time>2021-09-19T14:17:58Z</time>
      </trkpt>
      <trkpt lat="45.36831" lon="6.16084">
        <ele>2149</ele>
        <time>2021-09-19T14:18:29Z</time>
      </trkpt>
      <trkpt lat="45.36825" lon="6.16055">
        <ele>2129</ele>
        <time>2021-09-19T14:18:57Z</time>
      </trkpt>
      <trkpt lat="45.36823" lon="6.16023">
        <ele>2109</ele>
        <time>2021-09-19T14:19:27Z</time>
      </trkpt>
      <trkpt lat="45.36818" lon="6.15991">
        <ele>2091</ele>
        <time>2021-09-19T14:19:58Z</time>
      </trkpt>
      <trkpt lat="45.36814" lon="6.1593">
        <ele>2069</ele>
        <time>2021-09-19T14:20:56Z</time>
      </trkpt>
      <trkpt lat="45.36827" lon="6.15942">
        <ele>2076</ele>
        <time>2021-09-19T14:21:16Z</time>
      </trkpt>
      <trkpt lat="45.36839" lon="6.15949">
        <ele>2078</ele>
        <time>2021-09-19T14:21:34Z</time>
      </trkpt>
      <trkpt lat="45.36851" lon="6.15949">
        <ele>2073</ele>
        <time>2021-09-19T14:21:50Z</time>
      </trkpt>
      <trkpt lat="45.36851" lon="6.15947">
        <ele>2073</ele>
        <time>2021-09-19T14:21:51Z</time>
      </trkpt>
      <trkpt lat="45.36849" lon="6.15946">
        <ele>2073</ele>
        <time>2021-09-19T14:21:54Z</time>
      </trkpt>
      <trkpt lat="45.3685" lon="6.15944">
        <ele>2072</ele>
        <time>2021-09-19T14:21:57Z</time>
      </trkpt>
      <trkpt lat="45.36853" lon="6.15946">
        <ele>2072</ele>
        <time>2021-09-19T14:22:01Z</time>
      </trkpt>
      <trkpt lat="45.36861" lon="6.15946">
        <ele>2069</ele>
        <time>2021-09-19T14:22:12Z</time>
      </trkpt>
      <trkpt lat="45.36892" lon="6.15942">
        <ele>2056</ele>
        <time>2021-09-19T14:22:53Z</time>
      </trkpt>
      <trkpt lat="45.36934" lon="6.15964">
        <ele>2053</ele>
        <time>2021-09-19T14:23:53Z</time>
      </trkpt>
      <trkpt lat="45.36938" lon="6.15967">
        <ele>2053</ele>
        <time>2021-09-19T14:23:59Z</time>
      </trkpt>
      <trkpt lat="45.36956" lon="6.15972">
        <ele>2053</ele>
        <time>2021-09-19T14:24:23Z</time>
      </trkpt>
      <trkpt lat="45.36985" lon="6.15993">
        <ele>2060</ele>
        <time>2021-09-19T14:25:07Z</time>
      </trkpt>
      <trkpt lat="45.37005" lon="6.15989">
        <ele>2058</ele>
        <time>2021-09-19T14:25:34Z</time>
      </trkpt>
      <trkpt lat="45.37038" lon="6.15959">
        <ele>2057</ele>
        <time>2021-09-19T14:26:26Z</time>
      </trkpt>
      <trkpt lat="45.37049" lon="6.15937">
        <ele>2051</ele>
        <time>2021-09-19T14:26:51Z</time>
      </trkpt>
      <trkpt lat="45.37062" lon="6.159">
        <ele>2044</ele>
        <time>2021-09-19T14:27:30Z</time>
      </trkpt>
      <trkpt lat="45.37062" lon="6.15892">
        <ele>2043</ele>
        <time>2021-09-19T14:27:38Z</time>
      </trkpt>
      <trkpt lat="45.37066" lon="6.1587">
        <ele>2040</ele>
        <time>2021-09-19T14:27:59Z</time>
      </trkpt>
      <trkpt lat="45.37068" lon="6.15854">
        <ele>2039</ele>
        <time>2021-09-19T14:28:14Z</time>
      </trkpt>
      <trkpt lat="45.37066" lon="6.15833">
        <ele>2033</ele>
        <time>2021-09-19T14:28:34Z</time>
      </trkpt>
      <trkpt lat="45.37068" lon="6.15825">
        <ele>2034</ele>
        <time>2021-09-19T14:28:42Z</time>
      </trkpt>
      <trkpt lat="45.37069" lon="6.15787">
        <ele>2030</ele>
        <time>2021-09-19T14:29:18Z</time>
      </trkpt>
      <trkpt lat="45.37071" lon="6.15775">
        <ele>2030</ele>
        <time>2021-09-19T14:29:29Z</time>
      </trkpt>
      <trkpt lat="45.3707" lon="6.15761">
        <ele>2028</ele>
        <time>2021-09-19T14:29:42Z</time>
      </trkpt>
      <trkpt lat="45.37073" lon="6.15744">
        <ele>2027</ele>
        <time>2021-09-19T14:29:59Z</time>
      </trkpt>
      <trkpt lat="45.37068" lon="6.15726">
        <ele>2019</ele>
        <time>2021-09-19T14:30:17Z</time>
      </trkpt>
      <trkpt lat="45.37068" lon="6.15691">
        <ele>2010</ele>
        <time>2021-09-19T14:30:50Z</time>
      </trkpt>
      <trkpt lat="45.37072" lon="6.15688">
        <ele>2011</ele>
        <time>2021-09-19T14:30:56Z</time>
      </trkpt>
      <trkpt lat="45.37083" lon="6.15686">
        <ele>2015</ele>
        <time>2021-09-19T14:31:11Z</time>
      </trkpt>
      <trkpt lat="45.37087" lon="6.15688">
        <ele>2017</ele>
        <time>2021-09-19T14:31:16Z</time>
      </trkpt>
      <trkpt lat="45.37096" lon="6.15684">
        <ele>2018</ele>
        <time>2021-09-19T14:31:29Z</time>
      </trkpt>
      <trkpt lat="45.37103" lon="6.15676">
        <ele>2016</ele>
        <time>2021-09-19T14:31:41Z</time>
      </trkpt>
      <trkpt lat="45.37107" lon="6.15675">
        <ele>2016</ele>
        <time>2021-09-19T14:31:46Z</time>
      </trkpt>
      <trkpt lat="45.37113" lon="6.15678">
        <ele>2018</ele>
        <time>2021-09-19T14:31:55Z</time>
      </trkpt>
      <trkpt lat="45.37114" lon="6.15682">
        <ele>2020</ele>
        <time>2021-09-19T14:31:59Z</time>
      </trkpt>
      <trkpt lat="45.3712" lon="6.15686">
        <ele>2023</ele>
        <time>2021-09-19T14:32:08Z</time>
      </trkpt>
      <trkpt lat="45.37131" lon="6.15682">
        <ele>2024</ele>
        <time>2021-09-19T14:32:23Z</time>
      </trkpt>
      <trkpt lat="45.37141" lon="6.15683">
        <ele>2026</ele>
        <time>2021-09-19T14:32:36Z</time>
      </trkpt>
      <trkpt lat="45.37146" lon="6.15687">
        <ele>2029</ele>
        <time>2021-09-19T14:32:44Z</time>
      </trkpt>
      <trkpt lat="45.37165" lon="6.15693">
        <ele>2037</ele>
        <time>2021-09-19T14:33:10Z</time>
      </trkpt>
      <trkpt lat="45.37168" lon="6.15696">
        <ele>2039</ele>
        <time>2021-09-19T14:33:15Z</time>
      </trkpt>
      <trkpt lat="45.37198" lon="6.15696">
        <ele>2046</ele>
        <time>2021-09-19T14:33:55Z</time>
      </trkpt>
      <trkpt lat="45.37203" lon="6.157">
        <ele>2049</ele>
        <time>2021-09-19T14:34:02Z</time>
      </trkpt>
      <trkpt lat="45.37215" lon="6.15701">
        <ele>2052</ele>
        <time>2021-09-19T14:34:18Z</time>
      </trkpt>
      <trkpt lat="45.37235" lon="6.1569">
        <ele>2050</ele>
        <time>2021-09-19T14:34:47Z</time>
      </trkpt>
      <trkpt lat="45.37239" lon="6.15681">
        <ele>2045</ele>
        <time>2021-09-19T14:34:57Z</time>
      </trkpt>
      <trkpt lat="45.37249" lon="6.1567">
        <ele>2041</ele>
        <time>2021-09-19T14:35:14Z</time>
      </trkpt>
      <trkpt lat="45.37269" lon="6.15672">
        <ele>2046</ele>
        <time>2021-09-19T14:35:41Z</time>
      </trkpt>
      <trkpt lat="45.37284" lon="6.15679">
        <ele>2053</ele>
        <time>2021-09-19T14:36:02Z</time>
      </trkpt>
      <trkpt lat="45.37293" lon="6.15679">
        <ele>2055</ele>
        <time>2021-09-19T14:36:14Z</time>
      </trkpt>
      <trkpt lat="45.373" lon="6.15675">
        <ele>2054</ele>
        <time>2021-09-19T14:36:24Z</time>
      </trkpt>
      <trkpt lat="45.37307" lon="6.15664">
        <ele>2049</ele>
        <time>2021-09-19T14:36:38Z</time>
      </trkpt>
      <trkpt lat="45.37316" lon="6.15662">
        <ele>2050</ele>
        <time>2021-09-19T14:36:50Z</time>
      </trkpt>
      <trkpt lat="45.37324" lon="6.15655">
        <ele>2047</ele>
        <time>2021-09-19T14:37:02Z</time>
      </trkpt>
      <trkpt lat="45.37334" lon="6.15654">
        <ele>2049</ele>
        <time>2021-09-19T14:37:16Z</time>
      </trkpt>
      <trkpt lat="45.37341" lon="6.1565">
        <ele>2048</ele>
        <time>2021-09-19T14:37:26Z</time>
      </trkpt>
      <trkpt lat="45.37344" lon="6.15644">
        <ele>2045</ele>
        <time>2021-09-19T14:37:33Z</time>
      </trkpt>
      <trkpt lat="45.37363" lon="6.15629">
        <ele>2041</ele>
        <time>2021-09-19T14:38:02Z</time>
      </trkpt>
      <trkpt lat="45.37369" lon="6.15621">
        <ele>2039</ele>
        <time>2021-09-19T14:38:13Z</time>
      </trkpt>
      <trkpt lat="45.37373" lon="6.15621">
        <ele>2040</ele>
        <time>2021-09-19T14:38:18Z</time>
      </trkpt>
      <trkpt lat="45.37375" lon="6.15617">
        <ele>2038</ele>
        <time>2021-09-19T14:38:23Z</time>
      </trkpt>
      <trkpt lat="45.374" lon="6.1561">
        <ele>2044</ele>
        <time>2021-09-19T14:38:57Z</time>
      </trkpt>
      <trkpt lat="45.37412" lon="6.15596">
        <ele>2042</ele>
        <time>2021-09-19T14:39:17Z</time>
      </trkpt>
      <trkpt lat="45.37414" lon="6.1559">
        <ele>2040</ele>
        <time>2021-09-19T14:39:24Z</time>
      </trkpt>
      <trkpt lat="45.37414" lon="6.15579">
        <ele>2034</ele>
        <time>2021-09-19T14:39:34Z</time>
      </trkpt>
      <trkpt lat="45.37423" lon="6.15558">
        <ele>2019</ele>
        <time>2021-09-19T14:39:57Z</time>
      </trkpt>
      <trkpt lat="45.37438" lon="6.15552">
        <ele>2012</ele>
        <time>2021-09-19T14:40:18Z</time>
      </trkpt>
      <trkpt lat="45.37444" lon="6.15541">
        <ele>2005</ele>
        <time>2021-09-19T14:40:31Z</time>
      </trkpt>
      <trkpt lat="45.37472" lon="6.15515">
        <ele>1993</ele>
        <time>2021-09-19T14:41:15Z</time>
      </trkpt>
      <trkpt lat="45.37487" lon="6.15494">
        <ele>1989</ele>
        <time>2021-09-19T14:41:43Z</time>
      </trkpt>
      <trkpt lat="45.37491" lon="6.15491">
        <ele>1989</ele>
        <time>2021-09-19T14:41:49Z</time>
      </trkpt>
      <trkpt lat="45.37492" lon="6.15482">
        <ele>1987</ele>
        <time>2021-09-19T14:41:58Z</time>
      </trkpt>
      <trkpt lat="45.37504" lon="6.15468">
        <ele>1983</ele>
        <time>2021-09-19T14:42:19Z</time>
      </trkpt>
      <trkpt lat="45.37515" lon="6.15448">
        <ele>1976</ele>
        <time>2021-09-19T14:42:43Z</time>
      </trkpt>
      <trkpt lat="45.37525" lon="6.15425">
        <ele>1970</ele>
        <time>2021-09-19T14:43:08Z</time>
      </trkpt>
      <trkpt lat="45.37538" lon="6.15412">
        <ele>1966</ele>
        <time>2021-09-19T14:43:29Z</time>
      </trkpt>
      <trkpt lat="45.37542" lon="6.1541">
        <ele>1966</ele>
        <time>2021-09-19T14:43:35Z</time>
      </trkpt>
      <trkpt lat="45.37546" lon="6.15406">
        <ele>1964</ele>
        <time>2021-09-19T14:43:41Z</time>
      </trkpt>
      <trkpt lat="45.37559" lon="6.15402">
        <ele>1962</ele>
        <time>2021-09-19T14:43:59Z</time>
      </trkpt>
      <trkpt lat="45.37564" lon="6.15398">
        <ele>1961</ele>
        <time>2021-09-19T14:44:07Z</time>
      </trkpt>
      <trkpt lat="45.37584" lon="6.15397">
        <ele>1960</ele>
        <time>2021-09-19T14:44:33Z</time>
      </trkpt>
      <trkpt lat="45.37587" lon="6.15394">
        <ele>1959</ele>
        <time>2021-09-19T14:44:38Z</time>
      </trkpt>
      <trkpt lat="45.37599" lon="6.15391">
        <ele>1957</ele>
        <time>2021-09-19T14:44:55Z</time>
      </trkpt>
      <trkpt lat="45.3761" lon="6.15385">
        <ele>1955</ele>
        <time>2021-09-19T14:45:10Z</time>
      </trkpt>
      <trkpt lat="45.37618" lon="6.15384">
        <ele>1954</ele>
        <time>2021-09-19T14:45:21Z</time>
      </trkpt>
      <trkpt lat="45.37622" lon="6.15385">
        <ele>1953</ele>
        <time>2021-09-19T14:45:26Z</time>
      </trkpt>
      <trkpt lat="45.37631" lon="6.1538">
        <ele>1952</ele>
        <time>2021-09-19T14:45:39Z</time>
      </trkpt>
      <trkpt lat="45.37635" lon="6.15381">
        <ele>1952</ele>
        <time>2021-09-19T14:45:45Z</time>
      </trkpt>
      <trkpt lat="45.37644" lon="6.15371">
        <ele>1951</ele>
        <time>2021-09-19T14:46:00Z</time>
      </trkpt>
      <trkpt lat="45.37655" lon="6.15358">
        <ele>1951</ele>
        <time>2021-09-19T14:46:19Z</time>
      </trkpt>
      <trkpt lat="45.37655" lon="6.15358">
        <ele>1951</ele>
        <time>2021-09-19T14:46:19Z</time>
      </trkpt>
      <trkpt lat="45.37658" lon="6.15357">
        <ele>1951</ele>
        <time>2021-09-19T14:46:23Z</time>
      </trkpt>
      <trkpt lat="45.37665" lon="6.15359">
        <ele>1950</ele>
        <time>2021-09-19T14:46:33Z</time>
      </trkpt>
      <trkpt lat="45.37703" lon="6.15348">
        <ele>1957</ele>
        <time>2021-09-19T14:47:24Z</time>
      </trkpt>
      <trkpt lat="45.37725" lon="6.15349">
        <ele>1961</ele>
        <time>2021-09-19T14:47:54Z</time>
      </trkpt>
      <trkpt lat="45.37745" lon="6.15352">
        <ele>1964</ele>
        <time>2021-09-19T14:48:21Z</time>
      </trkpt>
      <trkpt lat="45.37768" lon="6.15344">
        <ele>1972</ele>
        <time>2021-09-19T14:48:52Z</time>
      </trkpt>
      <trkpt lat="45.37781" lon="6.15333">
        <ele>1977</ele>
        <time>2021-09-19T14:49:12Z</time>
      </trkpt>
      <trkpt lat="45.37797" lon="6.15326">
        <ele>1982</ele>
        <time>2021-09-19T14:49:35Z</time>
      </trkpt>
      <trkpt lat="45.37822" lon="6.15333">
        <ele>1992</ele>
        <time>2021-09-19T14:50:09Z</time>
      </trkpt>
      <trkpt lat="45.37836" lon="6.15333">
        <ele>1997</ele>
        <time>2021-09-19T14:50:27Z</time>
      </trkpt>
      <trkpt lat="45.37848" lon="6.15335">
        <ele>2000</ele>
        <time>2021-09-19T14:50:44Z</time>
      </trkpt>
      <trkpt lat="45.37857" lon="6.1534">
        <ele>2002</ele>
        <time>2021-09-19T14:50:56Z</time>
      </trkpt>
      <trkpt lat="45.37868" lon="6.15341">
        <ele>2005</ele>
        <time>2021-09-19T14:51:11Z</time>
      </trkpt>
      <trkpt lat="45.37888" lon="6.15321">
        <ele>2011</ele>
        <time>2021-09-19T14:51:44Z</time>
      </trkpt>
      <trkpt lat="45.37919" lon="6.15339">
        <ele>2020</ele>
        <time>2021-09-19T14:52:28Z</time>
      </trkpt>
      <trkpt lat="45.37929" lon="6.15351">
        <ele>2020</ele>
        <time>2021-09-19T14:52:46Z</time>
      </trkpt>
      <trkpt lat="45.37941" lon="6.15349">
        <ele>2024</ele>
        <time>2021-09-19T14:53:02Z</time>
      </trkpt>
      <trkpt lat="45.37953" lon="6.15352">
        <ele>2027</ele>
        <time>2021-09-19T14:53:18Z</time>
      </trkpt>
      <trkpt lat="45.3799" lon="6.15338">
        <ele>2040</ele>
        <time>2021-09-19T14:54:09Z</time>
      </trkpt>
      <trkpt lat="45.38004" lon="6.15344">
        <ele>2042</ele>
        <time>2021-09-19T14:54:29Z</time>
      </trkpt>
      <trkpt lat="45.38024" lon="6.15338">
        <ele>2046</ele>
        <time>2021-09-19T14:54:56Z</time>
      </trkpt>
      <trkpt lat="45.38035" lon="6.15343">
        <ele>2047</ele>
        <time>2021-09-19T14:55:12Z</time>
      </trkpt>
      <trkpt lat="45.38043" lon="6.15341">
        <ele>2048</ele>
        <time>2021-09-19T14:55:22Z</time>
      </trkpt>
      <trkpt lat="45.38046" lon="6.15335">
        <ele>2051</ele>
        <time>2021-09-19T14:55:29Z</time>
      </trkpt>
      <trkpt lat="45.38048" lon="6.15318">
        <ele>2053</ele>
        <time>2021-09-19T14:55:45Z</time>
      </trkpt>
      <trkpt lat="45.3806" lon="6.15314">
        <ele>2056</ele>
        <time>2021-09-19T14:56:02Z</time>
      </trkpt>
      <trkpt lat="45.38059" lon="6.15293">
        <ele>2059</ele>
        <time>2021-09-19T14:56:22Z</time>
      </trkpt>
      <trkpt lat="45.38071" lon="6.15287">
        <ele>2063</ele>
        <time>2021-09-19T14:56:39Z</time>
      </trkpt>
      <trkpt lat="45.38073" lon="6.15272">
        <ele>2066</ele>
        <time>2021-09-19T14:56:53Z</time>
      </trkpt>
      <trkpt lat="45.38085" lon="6.15277">
        <ele>2068</ele>
        <time>2021-09-19T14:57:10Z</time>
      </trkpt>
      <trkpt lat="45.38083" lon="6.15253">
        <ele>2073</ele>
        <time>2021-09-19T14:57:32Z</time>
      </trkpt>
      <trkpt lat="45.38089" lon="6.15235">
        <ele>2071</ele>
        <time>2021-09-19T14:57:51Z</time>
      </trkpt>
      <trkpt lat="45.38095" lon="6.15232">
        <ele>2071</ele>
        <time>2021-09-19T14:57:59Z</time>
      </trkpt>
      <trkpt lat="45.38105" lon="6.15232">
        <ele>2071</ele>
        <time>2021-09-19T14:58:13Z</time>
      </trkpt>
      <trkpt lat="45.38134" lon="6.15202">
        <ele>2072</ele>
        <time>2021-09-19T14:59:01Z</time>
      </trkpt>
      <trkpt lat="45.38175" lon="6.15175">
        <ele>2079</ele>
        <time>2021-09-19T15:00:01Z</time>
      </trkpt>
      <trkpt lat="45.38183" lon="6.15163">
        <ele>2078</ele>
        <time>2021-09-19T15:00:16Z</time>
      </trkpt>
      <trkpt lat="45.38187" lon="6.1515">
        <ele>2076</ele>
        <time>2021-09-19T15:00:30Z</time>
      </trkpt>
      <trkpt lat="45.38193" lon="6.1514">
        <ele>2074</ele>
        <time>2021-09-19T15:00:42Z</time>
      </trkpt>
      <trkpt lat="45.38204" lon="6.15128">
        <ele>2072</ele>
        <time>2021-09-19T15:01:00Z</time>
      </trkpt>
      <trkpt lat="45.38235" lon="6.15061">
        <ele>2071</ele>
        <time>2021-09-19T15:02:16Z</time>
      </trkpt>
      <trkpt lat="45.38239" lon="6.15039">
        <ele>2073</ele>
        <time>2021-09-19T15:02:37Z</time>
      </trkpt>
      <trkpt lat="45.38252" lon="6.1501">
        <ele>2077</ele>
        <time>2021-09-19T15:03:09Z</time>
      </trkpt>
      <trkpt lat="45.38257" lon="6.14981">
        <ele>2077</ele>
        <time>2021-09-19T15:03:37Z</time>
      </trkpt>
      <trkpt lat="45.38276" lon="6.14949">
        <ele>2077</ele>
        <time>2021-09-19T15:04:16Z</time>
      </trkpt>
      <trkpt lat="45.38291" lon="6.14936">
        <ele>2078</ele>
        <time>2021-09-19T15:04:40Z</time>
      </trkpt>
      <trkpt lat="45.38313" lon="6.14926">
        <ele>2081</ele>
        <time>2021-09-19T15:05:11Z</time>
      </trkpt>
      <trkpt lat="45.38327" lon="6.14916">
        <ele>2083</ele>
        <time>2021-09-19T15:05:32Z</time>
      </trkpt>
      <trkpt lat="45.38349" lon="6.14906">
        <ele>2081</ele>
        <time>2021-09-19T15:06:02Z</time>
      </trkpt>
      <trkpt lat="45.38374" lon="6.14904">
        <ele>2078</ele>
        <time>2021-09-19T15:06:36Z</time>
      </trkpt>
      <trkpt lat="45.38389" lon="6.14907">
        <ele>2076</ele>
        <time>2021-09-19T15:06:56Z</time>
      </trkpt>
      <trkpt lat="45.38414" lon="6.14903">
        <ele>2073</ele>
        <time>2021-09-19T15:07:30Z</time>
      </trkpt>
      <trkpt lat="45.38418" lon="6.14898">
        <ele>2073</ele>
        <time>2021-09-19T15:07:37Z</time>
      </trkpt>
      <trkpt lat="45.38417" lon="6.14886">
        <ele>2072</ele>
        <time>2021-09-19T15:07:48Z</time>
      </trkpt>
      <trkpt lat="45.38434" lon="6.14899">
        <ele>2069</ele>
        <time>2021-09-19T15:08:14Z</time>
      </trkpt>
      <trkpt lat="45.38441" lon="6.14882">
        <ele>2068</ele>
        <time>2021-09-19T15:08:32Z</time>
      </trkpt>
      <trkpt lat="45.38448" lon="6.14874">
        <ele>2067</ele>
        <time>2021-09-19T15:08:44Z</time>
      </trkpt>
      <trkpt lat="45.38492" lon="6.14867">
        <ele>2062</ele>
        <time>2021-09-19T15:09:43Z</time>
      </trkpt>
      <trkpt lat="45.38543" lon="6.14843">
        <ele>2069</ele>
        <time>2021-09-19T15:10:55Z</time>
      </trkpt>
      <trkpt lat="45.38554" lon="6.14835">
        <ele>2071</ele>
        <time>2021-09-19T15:11:12Z</time>
      </trkpt>
      <trkpt lat="45.38583" lon="6.14801">
        <ele>2071</ele>
        <time>2021-09-19T15:12:02Z</time>
      </trkpt>
      <trkpt lat="45.38632" lon="6.14769">
        <ele>2070</ele>
        <time>2021-09-19T15:13:14Z</time>
      </trkpt>
      <trkpt lat="45.38646" lon="6.14759">
        <ele>2071</ele>
        <time>2021-09-19T15:13:35Z</time>
      </trkpt>
      <trkpt lat="45.38663" lon="6.14754">
        <ele>2072</ele>
        <time>2021-09-19T15:13:58Z</time>
      </trkpt>
      <trkpt lat="45.38698" lon="6.14732">
        <ele>2066</ele>
        <time>2021-09-19T15:14:49Z</time>
      </trkpt>
      <trkpt lat="45.38739" lon="6.14703">
        <ele>2059</ele>
        <time>2021-09-19T15:15:50Z</time>
      </trkpt>
      <trkpt lat="45.38743" lon="6.1471">
        <ele>2060</ele>
        <time>2021-09-19T15:15:58Z</time>
      </trkpt>
      <trkpt lat="45.38806" lon="6.14716">
        <ele>2060</ele>
        <time>2021-09-19T15:17:23Z</time>
      </trkpt>
      <trkpt lat="45.38827" lon="6.14714">
        <ele>2060</ele>
        <time>2021-09-19T15:17:51Z</time>
      </trkpt>
      <trkpt lat="45.38835" lon="6.14716">
        <ele>2058</ele>
        <time>2021-09-19T15:18:01Z</time>
      </trkpt>
      <trkpt lat="45.38839" lon="6.1472">
        <ele>2056</ele>
        <time>2021-09-19T15:18:08Z</time>
      </trkpt>
      <trkpt lat="45.3884" lon="6.14727">
        <ele>2055</ele>
        <time>2021-09-19T15:18:15Z</time>
      </trkpt>
      <trkpt lat="45.38839" lon="6.14734">
        <ele>2055</ele>
        <time>2021-09-19T15:18:21Z</time>
      </trkpt>
      <trkpt lat="45.3884" lon="6.14727">
        <ele>2055</ele>
        <time>2021-09-19T15:18:28Z</time>
      </trkpt>
      <trkpt lat="45.38839" lon="6.1472">
        <ele>2056</ele>
        <time>2021-09-19T15:18:35Z</time>
      </trkpt>
      <trkpt lat="45.38835" lon="6.14716">
        <ele>2058</ele>
        <time>2021-09-19T15:18:41Z</time>
      </trkpt>
      <trkpt lat="45.38827" lon="6.14714">
        <ele>2060</ele>
        <time>2021-09-19T15:18:52Z</time>
      </trkpt>
      <trkpt lat="45.38806" lon="6.14716">
        <ele>2060</ele>
        <time>2021-09-19T15:19:20Z</time>
      </trkpt>
      <trkpt lat="45.38743" lon="6.1471">
        <ele>2060</ele>
        <time>2021-09-19T15:20:44Z</time>
      </trkpt>
      <trkpt lat="45.38739" lon="6.14703">
        <ele>2059</ele>
        <time>2021-09-19T15:20:53Z</time>
      </trkpt>
      <trkpt lat="45.38784" lon="6.14677">
        <ele>2057</ele>
        <time>2021-09-19T15:21:58Z</time>
      </trkpt>
      <trkpt lat="45.38792" lon="6.1467">
        <ele>2057</ele>
        <time>2021-09-19T15:22:10Z</time>
      </trkpt>
      <trkpt lat="45.38793" lon="6.14664">
        <ele>2056</ele>
        <time>2021-09-19T15:22:16Z</time>
      </trkpt>
      <trkpt lat="45.38788" lon="6.14634">
        <ele>2049</ele>
        <time>2021-09-19T15:22:45Z</time>
      </trkpt>
      <trkpt lat="45.38799" lon="6.14597">
        <ele>2043</ele>
        <time>2021-09-19T15:23:23Z</time>
      </trkpt>
      <trkpt lat="45.38809" lon="6.14526">
        <ele>2027</ele>
        <time>2021-09-19T15:24:30Z</time>
      </trkpt>
      <trkpt lat="45.38809" lon="6.1451">
        <ele>2023</ele>
        <time>2021-09-19T15:24:45Z</time>
      </trkpt>
      <trkpt lat="45.388" lon="6.14489">
        <ele>2018</ele>
        <time>2021-09-19T15:25:09Z</time>
      </trkpt>
      <trkpt lat="45.38793" lon="6.14478">
        <ele>2015</ele>
        <time>2021-09-19T15:25:22Z</time>
      </trkpt>
      <trkpt lat="45.38764" lon="6.1446">
        <ele>2011</ele>
        <time>2021-09-19T15:26:05Z</time>
      </trkpt>
      <trkpt lat="45.38744" lon="6.14445">
        <ele>2008</ele>
        <time>2021-09-19T15:26:35Z</time>
      </trkpt>
      <trkpt lat="45.38719" lon="6.14434">
        <ele>2005</ele>
        <time>2021-09-19T15:27:10Z</time>
      </trkpt>
      <trkpt lat="45.38709" lon="6.14418">
        <ele>2003</ele>
        <time>2021-09-19T15:27:30Z</time>
      </trkpt>
      <trkpt lat="45.38699" lon="6.14394">
        <ele>1999</ele>
        <time>2021-09-19T15:27:56Z</time>
      </trkpt>
      <trkpt lat="45.38693" lon="6.14368">
        <ele>1995</ele>
        <time>2021-09-19T15:28:22Z</time>
      </trkpt>
      <trkpt lat="45.38696" lon="6.14351">
        <ele>1993</ele>
        <time>2021-09-19T15:28:38Z</time>
      </trkpt>
      <trkpt lat="45.38705" lon="6.1433">
        <ele>1990</ele>
        <time>2021-09-19T15:29:01Z</time>
      </trkpt>
      <trkpt lat="45.38715" lon="6.1432">
        <ele>1988</ele>
        <time>2021-09-19T15:29:17Z</time>
      </trkpt>
      <trkpt lat="45.38731" lon="6.14311">
        <ele>1986</ele>
        <time>2021-09-19T15:29:40Z</time>
      </trkpt>
      <trkpt lat="45.38746" lon="6.14308">
        <ele>1984</ele>
        <time>2021-09-19T15:30:01Z</time>
      </trkpt>
      <trkpt lat="45.38813" lon="6.14326">
        <ele>1980</ele>
        <time>2021-09-19T15:31:32Z</time>
      </trkpt>
      <trkpt lat="45.38824" lon="6.14326">
        <ele>1979</ele>
        <time>2021-09-19T15:31:46Z</time>
      </trkpt>
      <trkpt lat="45.38846" lon="6.14316">
        <ele>1977</ele>
        <time>2021-09-19T15:32:17Z</time>
      </trkpt>
      <trkpt lat="45.38861" lon="6.14303">
        <ele>1975</ele>
        <time>2021-09-19T15:32:40Z</time>
      </trkpt>
      <trkpt lat="45.38874" lon="6.14284">
        <ele>1973</ele>
        <time>2021-09-19T15:33:05Z</time>
      </trkpt>
      <trkpt lat="45.38911" lon="6.14218">
        <ele>1962</ele>
        <time>2021-09-19T15:34:24Z</time>
      </trkpt>
      <trkpt lat="45.38941" lon="6.14188">
        <ele>1956</ele>
        <time>2021-09-19T15:35:13Z</time>
      </trkpt>
      <trkpt lat="45.38969" lon="6.14169">
        <ele>1952</ele>
        <time>2021-09-19T15:35:55Z</time>
      </trkpt>
      <trkpt lat="45.3901" lon="6.14155">
        <ele>1946</ele>
        <time>2021-09-19T15:36:51Z</time>
      </trkpt>
      <trkpt lat="45.39045" lon="6.14154">
        <ele>1943</ele>
        <time>2021-09-19T15:37:38Z</time>
      </trkpt>
      <trkpt lat="45.39127" lon="6.14144">
        <ele>1935</ele>
        <time>2021-09-19T15:39:28Z</time>
      </trkpt>
      <trkpt lat="45.39184" lon="6.14123">
        <ele>1922</ele>
        <time>2021-09-19T15:40:46Z</time>
      </trkpt>
      <trkpt lat="45.39209" lon="6.14118">
        <ele>1914</ele>
        <time>2021-09-19T15:41:20Z</time>
      </trkpt>
      <trkpt lat="45.39278" lon="6.14092">
        <ele>1888</ele>
        <time>2021-09-19T15:42:55Z</time>
      </trkpt>
      <trkpt lat="45.39309" lon="6.14072">
        <ele>1874</ele>
        <time>2021-09-19T15:43:41Z</time>
      </trkpt>
      <trkpt lat="45.39365" lon="6.1403">
        <ele>1862</ele>
        <time>2021-09-19T15:45:05Z</time>
      </trkpt>
      <trkpt lat="45.39437" lon="6.13965">
        <ele>1866</ele>
        <time>2021-09-19T15:46:59Z</time>
      </trkpt>
      <trkpt lat="45.3944" lon="6.13958">
        <ele>1866</ele>
        <time>2021-09-19T15:47:06Z</time>
      </trkpt>
      <trkpt lat="45.3944" lon="6.13951">
        <ele>1866</ele>
        <time>2021-09-19T15:47:13Z</time>
      </trkpt>
      <trkpt lat="45.39435" lon="6.13941">
        <ele>1865</ele>
        <time>2021-09-19T15:47:24Z</time>
      </trkpt>
      <trkpt lat="45.39426" lon="6.13934">
        <ele>1863</ele>
        <time>2021-09-19T15:47:38Z</time>
      </trkpt>
      <trkpt lat="45.39412" lon="6.13938">
        <ele>1861</ele>
        <time>2021-09-19T15:47:57Z</time>
      </trkpt>
      <trkpt lat="45.39363" lon="6.13958">
        <ele>1854</ele>
        <time>2021-09-19T15:49:05Z</time>
      </trkpt>
      <trkpt lat="45.39348" lon="6.13961">
        <ele>1852</ele>
        <time>2021-09-19T15:49:25Z</time>
      </trkpt>
      <trkpt lat="45.39338" lon="6.13957">
        <ele>1849</ele>
        <time>2021-09-19T15:49:39Z</time>
      </trkpt>
      <trkpt lat="45.39329" lon="6.13952">
        <ele>1847</ele>
        <time>2021-09-19T15:49:52Z</time>
      </trkpt>
      <trkpt lat="45.3932" lon="6.13941">
        <ele>1843</ele>
        <time>2021-09-19T15:50:08Z</time>
      </trkpt>
      <trkpt lat="45.39313" lon="6.13928">
        <ele>1839</ele>
        <time>2021-09-19T15:50:23Z</time>
      </trkpt>
      <trkpt lat="45.39309" lon="6.13914">
        <ele>1835</ele>
        <time>2021-09-19T15:50:38Z</time>
      </trkpt>
      <trkpt lat="45.39308" lon="6.13899">
        <ele>1831</ele>
        <time>2021-09-19T15:50:52Z</time>
      </trkpt>
      <trkpt lat="45.39323" lon="6.13778">
        <ele>1808</ele>
        <time>2021-09-19T15:52:47Z</time>
      </trkpt>
      <trkpt lat="45.39324" lon="6.13765">
        <ele>1807</ele>
        <time>2021-09-19T15:52:59Z</time>
      </trkpt>
      <trkpt lat="45.3932" lon="6.13755">
        <ele>1804</ele>
        <time>2021-09-19T15:53:10Z</time>
      </trkpt>
      <trkpt lat="45.39309" lon="6.13747">
        <ele>1800</ele>
        <time>2021-09-19T15:53:26Z</time>
      </trkpt>
      <trkpt lat="45.39297" lon="6.13743">
        <ele>1796</ele>
        <time>2021-09-19T15:53:43Z</time>
      </trkpt>
      <trkpt lat="45.39273" lon="6.13743">
        <ele>1790</ele>
        <time>2021-09-19T15:54:15Z</time>
      </trkpt>
      <trkpt lat="45.39249" lon="6.13741">
        <ele>1783</ele>
        <time>2021-09-19T15:54:47Z</time>
      </trkpt>
      <trkpt lat="45.39216" lon="6.1373">
        <ele>1777</ele>
        <time>2021-09-19T15:55:32Z</time>
      </trkpt>
      <trkpt lat="45.39193" lon="6.13718">
        <ele>1771</ele>
        <time>2021-09-19T15:56:05Z</time>
      </trkpt>
      <trkpt lat="45.39185" lon="6.13711">
        <ele>1768</ele>
        <time>2021-09-19T15:56:17Z</time>
      </trkpt>
      <trkpt lat="45.3914" lon="6.13632">
        <ele>1744</ele>
        <time>2021-09-19T15:57:53Z</time>
      </trkpt>
      <trkpt lat="45.39116" lon="6.13548">
        <ele>1730</ele>
        <time>2021-09-19T15:59:18Z</time>
      </trkpt>
      <trkpt lat="45.39118" lon="6.13489">
        <ele>1722</ele>
        <time>2021-09-19T16:00:13Z</time>
      </trkpt>
      <trkpt lat="45.39115" lon="6.1344">
        <ele>1714</ele>
        <time>2021-09-19T16:00:59Z</time>
      </trkpt>
      <trkpt lat="45.39113" lon="6.13424">
        <ele>1711</ele>
        <time>2021-09-19T16:01:14Z</time>
      </trkpt>
      <trkpt lat="45.39125" lon="6.13391">
        <ele>1707</ele>
        <time>2021-09-19T16:01:49Z</time>
      </trkpt>
      <trkpt lat="45.39128" lon="6.13367">
        <ele>1704</ele>
        <time>2021-09-19T16:02:12Z</time>
      </trkpt>
      <trkpt lat="45.39122" lon="6.13313">
        <ele>1697</ele>
        <time>2021-09-19T16:03:03Z</time>
      </trkpt>
      <trkpt lat="45.39175" lon="6.1321">
        <ele>1684</ele>
        <time>2021-09-19T16:05:03Z</time>
      </trkpt>
      <trkpt lat="45.39197" lon="6.13148">
        <ele>1677</ele>
        <time>2021-09-19T16:06:08Z</time>
      </trkpt>
      <trkpt lat="45.39232" lon="6.13076">
        <ele>1668</ele>
        <time>2021-09-19T16:07:30Z</time>
      </trkpt>
      <trkpt lat="45.39243" lon="6.1303">
        <ele>1662</ele>
        <time>2021-09-19T16:08:16Z</time>
      </trkpt>
      <trkpt lat="45.39294" lon="6.12916">
        <ele>1651</ele>
        <time>2021-09-19T16:10:22Z</time>
      </trkpt>
      <trkpt lat="45.39304" lon="6.12884">
        <ele>1649</ele>
        <time>2021-09-19T16:10:55Z</time>
      </trkpt>
      <trkpt lat="45.39309" lon="6.12856">
        <ele>1647</ele>
        <time>2021-09-19T16:11:22Z</time>
      </trkpt>
      <trkpt lat="45.39317" lon="6.12824">
        <ele>1644</ele>
        <time>2021-09-19T16:11:54Z</time>
      </trkpt>
      <trkpt lat="45.39325" lon="6.12835">
        <ele>1644</ele>
        <time>2021-09-19T16:12:09Z</time>
      </trkpt>
      <trkpt lat="45.39328" lon="6.12846">
        <ele>1644</ele>
        <time>2021-09-19T16:12:20Z</time>
      </trkpt>
      <trkpt lat="45.39334" lon="6.12848">
        <ele>1644</ele>
        <time>2021-09-19T16:12:28Z</time>
      </trkpt>
      <trkpt lat="45.39346" lon="6.12844">
        <ele>1645</ele>
        <time>2021-09-19T16:12:45Z</time>
      </trkpt>
      <trkpt lat="45.39357" lon="6.12837">
        <ele>1645</ele>
        <time>2021-09-19T16:13:01Z</time>
      </trkpt>
      <trkpt lat="45.39362" lon="6.12831">
        <ele>1645</ele>
        <time>2021-09-19T16:13:09Z</time>
      </trkpt>
      <trkpt lat="45.39373" lon="6.12826">
        <ele>1645</ele>
        <time>2021-09-19T16:13:25Z</time>
      </trkpt>
    </trkseg>
  </trk>
</gpx>